createdAt,value
2018-11-13T00:00:39.293Z,17.35
2018-11-13T00:03:07.610Z,16.30
2018-11-13T00:05:35.816Z,16.80
2018-11-13T00:08:04.270Z,17.60
2018-11-13T00:10:32.544Z,18.65
2018-11-13T00:13:00.871Z,18.90
2018-11-13T00:15:29.149Z,18.17
2018-11-13T00:17:57.412Z,18.62
2018-11-13T00:20:26.321Z,20.72
2018-11-13T00:22:54.577Z,18.75
2018-11-13T00:25:22.828Z,18.80
2018-11-13T00:27:51.071Z,18.52
2018-11-13T00:30:20.311Z,18.45
2018-11-13T00:32:48.637Z,18.60
2018-11-13T00:35:17.699Z,18.82
2018-11-13T00:37:46.723Z,18.65
2018-11-13T00:40:15.248Z,18.80
2018-11-13T00:42:44.360Z,17.07
2018-11-13T00:45:12.621Z,19.23
2018-11-13T00:47:40.863Z,17.80
2018-11-13T00:50:11.432Z,18.37
2018-11-13T00:52:40.127Z,17.15
2018-11-13T00:55:08.649Z,16.05
2018-11-13T00:57:37.694Z,18.77
2018-11-13T01:00:10.139Z,17.32
2018-11-13T01:02:38.485Z,18.75
2018-11-13T01:05:08.489Z,18.25
2018-11-13T01:07:36.756Z,18.30
2018-11-13T01:10:05.086Z,17.32
2018-11-13T01:12:33.340Z,16.80
2018-11-13T01:15:02.033Z,16.20
2018-11-13T01:17:30.271Z,19.05
2018-11-13T01:19:58.517Z,17.67
2018-11-13T01:22:26.755Z,18.27
2018-11-13T01:24:55.013Z,17.57
2018-11-13T01:27:23.241Z,18.77
2018-11-13T01:29:55.485Z,19.27
2018-11-13T01:32:25.017Z,19.27
2018-11-13T01:34:53.495Z,19.65
2018-11-13T01:37:21.802Z,18.75
2018-11-13T01:39:50.038Z,19.37
2018-11-13T01:42:18.250Z,16.75
2018-11-13T01:44:46.441Z,18.73
2018-11-13T01:47:14.654Z,19.50
2018-11-13T01:49:42.895Z,18.55
2018-11-13T01:52:11.177Z,17.25
2018-11-13T01:54:39.446Z,16.70
2018-11-13T01:57:07.757Z,18.02
2018-11-13T01:59:35.950Z,18.17
2018-11-13T02:02:04.266Z,17.30
2018-11-13T02:04:32.910Z,17.62
2018-11-13T02:07:01.215Z,17.40
2018-11-13T02:09:29.489Z,17.73
2018-11-13T02:11:57.768Z,18.40
2018-11-13T02:14:26.028Z,18.62
2018-11-13T02:16:54.234Z,18.80
2018-11-13T02:19:22.441Z,17.98
2018-11-13T02:21:50.717Z,17.55
2018-11-13T02:24:18.968Z,17.67
2018-11-13T02:26:47.185Z,17.75
2018-11-13T02:29:15.462Z,18.10
2018-11-13T02:31:43.766Z,18.32
2018-11-13T02:34:12.024Z,18.87
2018-11-13T02:36:40.292Z,17.77
2018-11-13T02:39:09.430Z,17.98
2018-11-13T02:41:37.740Z,17.20
2018-11-13T02:44:06.235Z,17.82
2018-11-13T02:46:34.526Z,18.20
2018-11-13T02:49:02.728Z,18.77
2018-11-13T02:51:30.945Z,18.23
2018-11-13T02:53:59.292Z,17.15
2018-11-13T02:56:27.500Z,17.80
2018-11-13T02:58:55.717Z,18.00
2018-11-13T03:01:23.957Z,18.07
2018-11-13T03:03:52.266Z,18.05
2018-11-13T03:06:20.499Z,17.57
2018-11-13T03:08:48.721Z,20.48
2018-11-13T03:11:16.977Z,18.67
2018-11-13T03:13:45.317Z,18.12
2018-11-13T03:16:13.473Z,18.98
2018-11-13T03:18:41.741Z,18.02
2018-11-13T03:21:10.018Z,18.37
2018-11-13T03:23:38.287Z,19.45
2018-11-13T03:26:06.957Z,18.02
2018-11-13T03:28:35.265Z,19.15
2018-11-13T03:31:03.627Z,18.27
2018-11-13T03:33:31.728Z,19.67
2018-11-13T03:35:59.942Z,18.20
2018-11-13T03:38:28.243Z,18.87
2018-11-13T03:40:56.442Z,20.43
2018-11-13T03:43:24.710Z,18.65
2018-11-13T03:45:53.554Z,18.07
2018-11-13T03:48:21.794Z,18.65
2018-11-13T03:50:50.149Z,18.12
2018-11-13T03:53:18.409Z,20.90
2018-11-13T03:55:46.609Z,20.35
2018-11-13T03:58:14.882Z,19.57
2018-11-13T04:00:43.146Z,20.82
2018-11-13T04:03:11.410Z,18.20
2018-11-13T04:05:39.697Z,20.00
2018-11-13T04:08:07.966Z,21.35
2018-11-13T04:10:36.303Z,20.25
2018-11-13T04:13:04.638Z,22.45
2018-11-13T04:15:32.914Z,19.60
2018-11-13T04:18:01.153Z,21.65
2018-11-13T04:20:29.350Z,22.27
2018-11-13T04:22:57.621Z,23.57
2018-11-13T04:25:25.870Z,21.07
2018-11-13T04:27:54.090Z,22.75
2018-11-13T04:30:22.403Z,22.60
2018-11-13T04:32:50.653Z,23.80
2018-11-13T04:35:19.282Z,23.20
2018-11-13T04:37:47.510Z,22.17
2018-11-13T04:40:16.956Z,22.02
2018-11-13T04:42:46.487Z,22.60
2018-11-13T04:45:15.866Z,24.98
2018-11-13T04:47:45.368Z,23.07
2018-11-13T04:50:15.050Z,23.15
2018-11-13T04:52:43.666Z,23.05
2018-11-13T04:55:12.191Z,21.52
2018-11-13T04:57:41.824Z,23.52
2018-11-13T05:00:11.557Z,23.67
2018-11-13T05:02:40.545Z,22.75
2018-11-13T05:05:09.677Z,22.13
2018-11-13T05:07:38.002Z,21.30
2018-11-13T05:10:07.769Z,22.80
2018-11-13T05:12:36.018Z,23.73
2018-11-13T05:15:04.629Z,23.15
2018-11-13T05:17:33.277Z,23.73
2018-11-13T05:20:01.552Z,21.55
2018-11-13T05:22:29.890Z,20.65
2018-11-13T05:24:58.190Z,23.65
2018-11-13T05:27:26.411Z,21.33
2018-11-13T05:29:54.728Z,19.25
2018-11-13T05:32:23.022Z,21.12
2018-11-13T05:34:51.335Z,21.48
2018-11-13T05:37:19.558Z,20.80
2018-11-13T05:39:47.793Z,21.23
2018-11-13T05:42:16.063Z,20.10
2018-11-13T05:44:44.405Z,19.05
2018-11-13T05:47:12.723Z,22.60
2018-11-13T05:49:40.994Z,19.55
2018-11-13T05:52:09.231Z,20.15
2018-11-13T05:54:37.461Z,19.05
2018-11-13T05:57:05.763Z,20.92
2018-11-13T05:59:34.082Z,22.17
2018-11-13T06:02:02.384Z,19.52
2018-11-13T06:04:30.636Z,18.82
2018-11-13T06:06:58.989Z,20.72
2018-11-13T06:09:27.253Z,19.00
2018-11-13T06:11:55.719Z,22.45
2018-11-13T06:14:23.927Z,20.45
2018-11-13T06:16:52.133Z,19.50
2018-11-13T06:19:20.405Z,20.08
2018-11-13T06:21:48.645Z,20.68
2018-11-13T06:24:16.917Z,20.12
2018-11-13T06:26:45.234Z,20.75
2018-11-13T06:29:13.490Z,18.70
2018-11-13T06:31:41.772Z,20.12
2018-11-13T06:34:09.983Z,19.80
2018-11-13T06:36:38.223Z,20.10
2018-11-13T06:39:08.461Z,20.08
2018-11-13T06:41:36.726Z,19.12
2018-11-13T06:44:05.034Z,18.37
2018-11-13T06:46:33.335Z,19.62
2018-11-13T06:49:01.769Z,18.77
2018-11-13T06:51:30.045Z,17.87
2018-11-13T06:54:09.752Z,20.08
2018-11-13T06:56:38.014Z,18.77
2018-11-13T06:59:06.262Z,17.57
2018-11-13T07:01:41.235Z,17.70
2018-11-13T07:04:09.494Z,18.15
2018-11-13T07:06:37.749Z,17.52
2018-11-13T07:09:08.044Z,16.02
2018-11-13T07:11:36.314Z,16.40
2018-11-13T07:14:04.625Z,16.70
2018-11-13T07:16:32.928Z,17.55
2018-11-13T07:19:01.314Z,17.05
2018-11-13T07:21:29.555Z,16.85
2018-11-13T07:23:57.817Z,18.00
2018-11-13T07:26:27.022Z,17.40
2018-11-13T07:28:55.342Z,13.05
2018-11-13T07:31:23.608Z,16.65
2018-11-13T07:33:51.853Z,15.88
2018-11-13T07:36:20.166Z,15.58
2018-11-13T07:38:48.402Z,14.90
2018-11-13T07:41:16.711Z,12.85
2018-11-13T07:43:44.853Z,14.13
2018-11-13T07:46:13.093Z,13.30
2018-11-13T07:48:41.369Z,12.98
2018-11-13T07:51:09.739Z,10.98
2018-11-13T07:53:38.007Z,10.15
2018-11-13T07:56:06.281Z,7.90
2018-11-13T07:58:34.558Z,8.38
2018-11-13T08:01:02.780Z,8.30
2018-11-13T08:03:39.415Z,8.05
2018-11-13T08:06:07.945Z,8.73
2018-11-13T08:08:36.181Z,6.75
2018-11-13T08:11:05.058Z,6.50
2018-11-13T08:13:34.050Z,5.92
2018-11-13T08:16:02.407Z,6.58
2018-11-13T08:18:31.323Z,6.25
2018-11-13T08:20:59.519Z,5.85
2018-11-13T08:23:27.785Z,5.33
2018-11-13T08:25:56.022Z,4.80
2018-11-13T08:28:24.309Z,4.83
2018-11-13T08:30:52.518Z,4.80
2018-11-13T08:33:20.791Z,3.95
2018-11-13T08:35:49.117Z,3.30
2018-11-13T08:38:17.382Z,3.35
2018-11-13T08:40:45.666Z,2.35
2018-11-13T08:43:14.021Z,2.33
2018-11-13T08:45:42.304Z,2.20
2018-11-13T08:48:10.582Z,2.47
2018-11-13T08:50:38.960Z,2.10
2018-11-13T08:53:07.114Z,2.40
2018-11-13T08:55:35.429Z,2.33
2018-11-13T08:58:03.716Z,2.50
2018-11-13T09:00:32.020Z,2.17
2018-11-13T09:03:00.301Z,2.70
2018-11-13T09:05:28.520Z,2.50
2018-11-13T09:07:56.809Z,2.35
2018-11-13T09:10:25.076Z,2.65
2018-11-13T09:12:53.314Z,3.08
2018-11-13T09:15:22.316Z,2.90
2018-11-13T09:17:50.545Z,3.30
2018-11-13T09:20:19.904Z,3.10
2018-11-13T09:22:48.181Z,3.05
2018-11-13T09:25:19.668Z,3.22
2018-11-13T09:27:48.002Z,2.87
2018-11-13T09:30:17.715Z,2.80
2018-11-13T09:32:46.447Z,2.20
2018-11-13T09:35:15.828Z,2.20
2018-11-13T09:37:44.123Z,2.75
2018-11-13T09:40:15.095Z,1.95
2018-11-13T09:42:44.309Z,1.90
2018-11-13T09:45:13.357Z,1.57
2018-11-13T09:47:41.963Z,1.72
2018-11-13T09:50:12.902Z,1.70
2018-11-13T09:52:42.452Z,2.00
2018-11-13T09:55:13.026Z,1.70
2018-11-13T09:57:41.410Z,1.52
2018-11-13T10:00:17.076Z,1.70
2018-11-13T10:02:47.073Z,1.90
2018-11-13T10:05:15.997Z,1.92
2018-11-13T10:07:44.570Z,1.70
2018-11-13T10:10:12.989Z,1.10
2018-11-13T10:12:41.215Z,1.50
2018-11-13T10:15:14.018Z,2.08
2018-11-13T10:17:42.454Z,1.57
2018-11-13T10:20:12.318Z,1.07
2018-11-13T10:22:41.569Z,1.15
2018-11-13T10:25:10.612Z,1.52
2018-11-13T10:27:39.136Z,1.30
2018-11-13T10:30:10.638Z,1.30
2018-11-13T10:32:39.216Z,1.50
2018-11-13T10:35:08.936Z,1.50
2018-11-13T10:37:37.875Z,1.50
2018-11-13T10:40:07.213Z,1.90
2018-11-13T10:42:35.622Z,1.30
2018-11-13T10:45:04.396Z,1.60
2018-11-13T10:47:32.709Z,1.60
2018-11-13T10:50:01.123Z,2.15
2018-11-13T10:52:29.452Z,1.57
2018-11-13T10:54:57.773Z,1.60
2018-11-13T10:57:26.042Z,2.00
2018-11-13T10:59:54.442Z,1.65
2018-11-13T11:03:29.757Z,2.52
2018-11-13T11:05:57.994Z,1.87
2018-11-13T11:08:26.337Z,2.22
2018-11-13T11:10:54.667Z,2.40
2018-11-13T11:13:23.065Z,2.10
2018-11-13T11:15:51.234Z,1.80
2018-11-13T11:18:19.590Z,2.35
2018-11-13T11:20:47.885Z,2.12
2018-11-13T11:23:16.171Z,1.80
2018-11-13T11:25:44.515Z,2.20
2018-11-13T11:28:13.504Z,2.08
2018-11-13T11:30:41.872Z,1.67
2018-11-13T11:33:10.106Z,2.33
2018-11-13T11:35:38.325Z,2.22
2018-11-13T11:38:06.695Z,1.87
2018-11-13T11:40:35.045Z,1.70
2018-11-13T11:43:03.381Z,2.00
2018-11-13T11:45:31.667Z,1.75
2018-11-13T11:47:59.911Z,2.08
2018-11-13T11:50:28.206Z,1.47
2018-11-13T11:52:56.540Z,2.33
2018-11-13T11:55:24.815Z,2.00
2018-11-13T11:57:53.107Z,1.95
2018-11-13T12:00:32.506Z,2.12
2018-11-13T12:03:00.915Z,2.00
2018-11-13T12:05:29.182Z,2.00
2018-11-13T12:07:57.419Z,1.60
2018-11-13T12:10:25.803Z,2.40
2018-11-13T12:12:54.624Z,1.95
2018-11-13T12:15:22.906Z,1.75
2018-11-13T12:17:51.189Z,2.00
2018-11-13T12:20:19.491Z,1.92
2018-11-13T12:22:47.797Z,1.70
2018-11-13T12:25:17.426Z,1.87
2018-11-13T12:27:45.762Z,2.47
2018-11-13T12:30:18.130Z,1.62
2018-11-13T12:32:47.159Z,1.40
2018-11-13T12:35:16.444Z,2.10
2018-11-13T12:37:44.786Z,2.30
2018-11-13T12:40:14.548Z,1.98
2018-11-13T12:42:46.078Z,1.80
2018-11-13T12:45:12.645Z,2.02
2018-11-13T12:47:41.662Z,1.87
2018-11-13T12:50:10.733Z,1.87
2018-11-13T12:52:38.929Z,1.67
2018-11-13T12:55:09.302Z,1.45
2018-11-13T12:57:37.554Z,1.80
2018-11-13T13:00:14.721Z,2.08
2018-11-13T13:02:43.035Z,1.70
2018-11-13T13:05:11.319Z,1.50
2018-11-13T13:07:39.978Z,1.90
2018-11-13T13:10:10.049Z,2.00
2018-11-13T13:12:38.400Z,2.00
2018-11-13T13:15:08.834Z,2.20
2018-11-13T13:17:37.437Z,1.80
2018-11-13T13:20:07.916Z,1.90
2018-11-13T13:22:36.533Z,1.95
2018-11-13T13:25:05.928Z,2.30
2018-11-13T13:27:34.146Z,1.57
2018-11-13T13:30:02.417Z,2.25
2018-11-13T13:32:30.687Z,1.35
2018-11-13T13:34:58.915Z,1.45
2018-11-13T13:37:27.321Z,1.80
2018-11-13T13:39:55.659Z,1.62
2018-11-13T13:42:23.861Z,1.65
2018-11-13T13:44:52.198Z,1.60
2018-11-13T13:47:20.483Z,2.00
2018-11-13T13:49:49.758Z,1.70
2018-11-13T13:52:17.997Z,1.80
2018-11-13T13:54:46.302Z,2.12
2018-11-13T13:57:14.582Z,1.45
2018-11-13T13:59:42.922Z,1.85
2018-11-13T14:02:11.160Z,1.92
2018-11-13T14:04:39.406Z,2.45
2018-11-13T14:07:07.681Z,2.25
2018-11-13T14:09:36.047Z,2.02
2018-11-13T14:12:04.486Z,2.08
2018-11-13T14:14:32.765Z,1.90
2018-11-13T14:17:01.267Z,2.17
2018-11-13T14:19:29.525Z,2.30
2018-11-13T14:21:57.822Z,2.10
2018-11-13T14:24:26.118Z,1.70
2018-11-13T14:26:54.708Z,2.30
2018-11-13T14:29:23.224Z,2.10
2018-11-13T14:31:51.506Z,2.50
2018-11-13T14:34:19.801Z,2.15
2018-11-13T14:36:48.032Z,2.30
2018-11-13T14:39:16.406Z,2.37
2018-11-13T14:41:44.625Z,1.60
2018-11-13T14:44:12.921Z,1.98
2018-11-13T14:46:41.380Z,2.08
2018-11-13T14:49:09.594Z,2.30
2018-11-13T14:51:37.879Z,2.10
2018-11-13T14:54:06.145Z,2.72
2018-11-13T14:56:34.569Z,2.35
2018-11-13T14:59:02.802Z,2.00
2018-11-13T15:01:31.135Z,2.27
2018-11-13T15:03:59.394Z,1.92
2018-11-13T15:06:27.727Z,2.08
2018-11-13T15:08:55.962Z,2.17
2018-11-13T15:11:24.234Z,1.85
2018-11-13T15:13:52.510Z,1.62
2018-11-13T15:16:20.814Z,3.20
2018-11-13T15:18:49.095Z,2.98
2018-11-13T15:21:17.284Z,1.90
2018-11-13T15:23:45.537Z,2.02
2018-11-13T15:26:13.880Z,2.30
2018-11-13T15:28:42.087Z,2.10
2018-11-13T15:31:10.346Z,2.15
2018-11-13T15:33:38.658Z,1.80
2018-11-13T15:36:06.886Z,2.70
2018-11-13T15:38:35.130Z,1.90
2018-11-13T15:41:03.494Z,2.12
2018-11-13T15:43:31.766Z,2.33
2018-11-13T15:45:59.974Z,1.72
2018-11-13T15:48:28.237Z,2.30
2018-11-13T15:50:56.528Z,3.25
2018-11-13T15:53:24.810Z,2.40
2018-11-13T15:55:53.788Z,2.25
2018-11-13T15:58:22.109Z,2.75
2018-11-13T16:00:50.465Z,2.65
2018-11-13T16:03:22.465Z,2.75
2018-11-13T16:05:55.065Z,2.40
2018-11-13T16:08:23.359Z,2.55
2018-11-13T16:10:51.658Z,3.08
2018-11-13T16:13:19.974Z,2.67
2018-11-13T16:15:48.295Z,2.95
2018-11-13T16:18:18.123Z,2.87
2018-11-13T16:20:46.336Z,1.90
2018-11-13T16:23:14.597Z,2.87
2018-11-13T16:25:42.805Z,2.75
2018-11-13T16:28:11.074Z,4.40
2018-11-13T16:30:39.945Z,2.87
2018-11-13T16:33:08.358Z,2.27
2018-11-13T16:35:36.654Z,2.77
2018-11-13T16:38:06.508Z,3.10
2018-11-13T16:40:34.854Z,2.55
2018-11-13T16:43:03.123Z,2.17
2018-11-13T16:45:32.499Z,2.37
2018-11-13T16:48:01.398Z,2.40
2018-11-13T16:50:32.009Z,2.40
2018-11-13T16:53:00.393Z,2.30
2018-11-13T16:55:34.114Z,2.95
2018-11-13T16:58:03.606Z,2.72
2018-11-13T17:00:31.916Z,3.30
2018-11-13T17:03:00.083Z,2.65
2018-11-13T17:05:29.060Z,2.90
2018-11-13T17:07:57.143Z,2.47
2018-11-13T17:10:26.625Z,3.20
2018-11-13T17:13:02.317Z,3.77
2018-11-13T17:15:31.514Z,3.70
2018-11-13T17:18:01.084Z,3.00
2018-11-13T17:20:29.414Z,3.37
2018-11-13T17:22:57.632Z,3.22
2018-11-13T17:25:27.493Z,4.00
2018-11-13T17:27:56.093Z,3.90
2018-11-13T17:30:31.249Z,3.85
2018-11-13T17:33:00.732Z,3.90
2018-11-13T17:35:29.626Z,3.30
2018-11-13T17:37:58.366Z,3.90
2018-11-13T17:40:30.758Z,4.20
2018-11-13T17:43:00.539Z,4.00
2018-11-13T17:45:32.073Z,4.15
2018-11-13T17:48:00.534Z,4.75
2018-11-13T17:50:34.029Z,4.92
2018-11-13T17:53:02.654Z,5.37
2018-11-13T17:55:30.933Z,4.50
2018-11-13T17:58:01.362Z,4.60
2018-11-13T18:00:31.506Z,7.30
2018-11-13T18:03:00.946Z,6.95
2018-11-13T18:05:29.645Z,6.55
2018-11-13T18:07:59.055Z,7.50
2018-11-13T18:10:28.214Z,6.92
2018-11-13T18:12:56.501Z,6.35
2018-11-13T18:15:26.070Z,6.30
2018-11-13T18:17:54.300Z,6.53
2018-11-13T18:20:24.799Z,5.00
2018-11-13T18:22:53.078Z,5.60
2018-11-13T18:25:21.412Z,7.15
2018-11-13T18:27:51.847Z,6.35
2018-11-13T18:30:23.535Z,5.78
2018-11-13T18:32:52.045Z,5.95
2018-11-13T18:35:23.673Z,6.92
2018-11-13T18:37:52.729Z,6.65
2018-11-13T18:40:21.662Z,6.05
2018-11-13T18:42:50.661Z,6.58
2018-11-13T18:45:22.358Z,6.30
2018-11-13T18:47:50.625Z,4.87
2018-11-13T18:50:21.418Z,5.12
2018-11-13T18:52:49.590Z,6.15
2018-11-13T18:55:18.157Z,7.20
2018-11-13T18:57:46.609Z,6.17
2018-11-13T19:00:18.037Z,6.25
2018-11-13T19:02:46.308Z,7.20
2018-11-13T19:05:15.432Z,6.10
2018-11-13T19:07:43.919Z,7.53
2018-11-13T19:10:17.630Z,5.65
2018-11-13T19:12:46.469Z,6.40
2018-11-13T19:15:15.561Z,6.47
2018-11-13T19:17:43.839Z,6.70
2018-11-13T19:20:15.628Z,6.47
2018-11-13T19:22:43.882Z,6.10
2018-11-13T19:25:18.857Z,7.55
2018-11-13T19:27:47.759Z,6.55
2018-11-13T19:30:16.875Z,7.10
2018-11-13T19:32:45.093Z,6.25
2018-11-13T19:35:13.940Z,8.50
2018-11-13T19:37:42.133Z,7.08
2018-11-13T19:40:27.470Z,7.22
2018-11-13T19:42:56.582Z,10.40
2018-11-13T19:45:24.893Z,8.80
2018-11-13T19:47:53.263Z,8.35
2018-11-13T19:50:23.092Z,9.23
2018-11-13T19:52:51.349Z,8.85
2018-11-13T19:55:20.557Z,8.10
2018-11-13T19:57:49.125Z,6.80
2018-11-13T20:00:18.707Z,7.70
2018-11-13T20:02:47.634Z,7.50
2018-11-13T20:05:15.914Z,7.90
2018-11-13T20:07:44.191Z,7.47
2018-11-13T20:10:19.406Z,7.65
2018-11-13T20:12:48.705Z,6.47
2018-11-13T20:15:17.175Z,8.00
2018-11-13T20:17:45.463Z,8.23
2018-11-13T20:20:17.118Z,8.55
2018-11-13T20:22:45.869Z,9.73
2018-11-13T20:25:15.542Z,9.23
2018-11-13T20:27:43.829Z,7.95
2018-11-13T20:30:16.354Z,8.75
2018-11-13T20:32:44.572Z,7.20
2018-11-13T20:35:13.218Z,8.63
2018-11-13T20:37:42.565Z,8.35
2018-11-13T20:40:13.062Z,8.63
2018-11-13T20:42:41.818Z,7.15
2018-11-13T20:45:10.686Z,8.28
2018-11-13T20:47:39.301Z,7.78
2018-11-13T20:50:09.330Z,6.83
2018-11-13T20:52:37.781Z,7.03
2018-11-13T20:55:06.661Z,6.60
2018-11-13T20:57:34.998Z,7.67
2018-11-13T21:00:03.350Z,7.85
2018-11-13T21:02:31.604Z,6.83
2018-11-13T21:04:59.827Z,7.30
2018-11-13T21:07:28.048Z,8.93
2018-11-13T21:09:56.273Z,7.30
2018-11-13T21:12:25.243Z,7.70
2018-11-13T21:14:53.552Z,7.97
2018-11-13T21:17:22.014Z,7.67
2018-11-13T21:19:50.386Z,6.80
2018-11-13T21:22:18.426Z,7.58
2018-11-13T21:24:46.659Z,7.90
2018-11-13T21:27:14.911Z,8.30
2018-11-13T21:29:43.221Z,8.68
2018-11-13T21:32:11.550Z,9.60
2018-11-13T21:34:39.822Z,8.73
2018-11-13T21:37:08.850Z,9.60
2018-11-13T21:39:37.032Z,9.50
2018-11-13T21:42:12.382Z,8.73
2018-11-13T21:44:40.685Z,9.90
2018-11-13T21:47:08.937Z,9.25
2018-11-13T21:49:37.262Z,8.58
2018-11-13T21:52:05.569Z,8.28
2018-11-13T21:54:33.790Z,9.20
2018-11-13T21:57:02.093Z,9.33
2018-11-13T21:59:30.295Z,9.63
2018-11-13T22:01:58.571Z,10.38
2018-11-13T22:04:26.907Z,10.85
2018-11-13T22:06:55.117Z,10.50
2018-11-13T22:09:23.345Z,9.73
2018-11-13T22:11:51.541Z,9.30
2018-11-13T22:14:19.944Z,10.03
2018-11-13T22:16:48.268Z,10.70
2018-11-13T22:19:16.267Z,10.15
2018-11-13T22:21:44.542Z,10.53
2018-11-13T22:24:12.893Z,10.60
2018-11-13T22:26:41.126Z,11.50
2018-11-13T22:29:09.453Z,10.80
2018-11-13T22:31:37.569Z,11.25
2018-11-13T22:34:06.300Z,10.78
2018-11-13T22:36:34.808Z,10.18
2018-11-13T22:39:02.916Z,11.20
2018-11-13T22:41:31.182Z,10.40
2018-11-13T22:43:59.457Z,12.00
2018-11-13T22:46:27.663Z,11.55
2018-11-13T22:48:55.944Z,12.28
2018-11-13T22:51:24.242Z,12.47
2018-11-13T22:53:52.534Z,13.68
2018-11-13T22:56:20.813Z,11.20
2018-11-13T22:58:49.009Z,12.40
2018-11-13T23:01:17.379Z,12.03
2018-11-13T23:03:45.670Z,12.10
2018-11-13T23:06:13.918Z,11.45
2018-11-13T23:08:42.118Z,10.65
2018-11-13T23:11:12.830Z,11.97
2018-11-13T23:13:41.210Z,13.88
2018-11-13T23:16:09.571Z,13.25
2018-11-13T23:18:37.779Z,12.03
2018-11-13T23:21:06.090Z,11.73
2018-11-13T23:23:34.354Z,11.75
2018-11-13T23:26:02.608Z,11.35
2018-11-13T23:28:31.126Z,11.55
2018-11-13T23:30:59.367Z,11.95
2018-11-13T23:33:27.613Z,12.55
2018-11-13T23:35:55.908Z,12.47
2018-11-13T23:38:24.216Z,12.35
2018-11-13T23:40:52.666Z,12.93
2018-11-13T23:43:20.823Z,13.08
2018-11-13T23:45:49.199Z,12.33
2018-11-13T23:48:17.402Z,12.65
2018-11-13T23:50:45.744Z,10.20
2018-11-13T23:53:13.977Z,10.70
2018-11-13T23:55:42.206Z,10.05
2018-11-13T23:58:10.463Z,11.83
